Viewpointe Walnut Grove Tower

*Note: All times are displayed in the local standard time of the station location.
**Rain - Equipment is designed to accurately record liquid precipitation; under conditions when precipitation is not in liquid form, the data displayed may not properly reflect rainfall values.

Date Max Temp
(°C)
Min Temp
(°C)
Avg Temp
(°C)
Rain (mm) Avg RH (%)
Mon, Jun 17, 2019 20.9 12.2 16.6 - 86.5
Sun, Jun 16, 2019 18.1 14.2 15.9 - 95.8
Sat, Jun 15, 2019 19.1 17.3 18.2 - 83.9
Fri, Jun 14, 2019 22.4 10.6 16.7 - 69.0
Thu, Jun 13, 2019 18.3 12.2 15.2 - 88.2
Wed, Jun 12, 2019 23.2 12.3 18.8 - 67.6
Tue, Jun 11, 2019 23.1 8.0 17.1 - 72.0
DateTime Avg Temp (°C) Rain (mm) RH (%)
Tue, Jun 18, 2019 22:00 17.6 - 94.2
Tue, Jun 18, 2019 21:00 21.4 - 78.3
Tue, Jun 18, 2019 20:00 23.6 - 68.4
Tue, Jun 18, 2019 19:00 24.1 - 64.9
Tue, Jun 18, 2019 18:00 23.2 - 67.9
Tue, Jun 18, 2019 17:00 22.4 - 70.4
Tue, Jun 18, 2019 16:00 22.0 - 71.0
Tue, Jun 18, 2019 15:00 21.9 - 71.9
Tue, Jun 18, 2019 14:00 22.4 - 69.6
Tue, Jun 18, 2019 13:00 21.4 - 68.2
Tue, Jun 18, 2019 12:00 20.1 - 71.1
Tue, Jun 18, 2019 11:00 19.7 - 72.9
Tue, Jun 18, 2019 10:00 18.3 - 77.4
Tue, Jun 18, 2019 09:00 17.1 - 80.8
Tue, Jun 18, 2019 08:00 16.2 - 83.2
Tue, Jun 18, 2019 07:00 14.2 - 91.5
Tue, Jun 18, 2019 06:00 14.0 - 93.0
Tue, Jun 18, 2019 05:00 15.1 - 91.0
Tue, Jun 18, 2019 04:00 15.4 - 96.8
Tue, Jun 18, 2019 03:00 15.5 - 94.5
Tue, Jun 18, 2019 02:00 15.4 - 97.8
Tue, Jun 18, 2019 01:00 15.1 - 98.2
Tue, Jun 18, 2019 00:00 15.4 - 97.5
Mon, Jun 17, 2019 23:00 16.0 - 94.3
Mon, Jun 17, 2019 22:00 17.4 - 84.0
Mon, Jun 17, 2019 21:00 17.8 - 82.7
Mon, Jun 17, 2019 20:00 17.8 - 83.1
Mon, Jun 17, 2019 19:00 18.3 - 82.3
Mon, Jun 17, 2019 18:00 19.0 - 81.6
Mon, Jun 17, 2019 17:00 20.5 - 74.7
Mon, Jun 17, 2019 16:00 20.5 - 74.3
Mon, Jun 17, 2019 15:00 19.6 - 75.7
Mon, Jun 17, 2019 14:00 19.1 - 74.8
Mon, Jun 17, 2019 13:00 19.2 - 72.6
Mon, Jun 17, 2019 12:00 19.0 - 75.0
Mon, Jun 17, 2019 11:00 18.4 - 79.3
Mon, Jun 17, 2019 10:00 17.2 - 83.3
Mon, Jun 17, 2019 08:00 15.1 - 91.9
Mon, Jun 17, 2019 07:00 14.3 - 96.7
Mon, Jun 17, 2019 06:00 13.7 - 97.8
Mon, Jun 17, 2019 05:00 13.5 - 98.0
Mon, Jun 17, 2019 04:00 12.9 - 99.5
Mon, Jun 17, 2019 03:00 12.8 - 99.7
Mon, Jun 17, 2019 02:00 12.7 - 98.6
Mon, Jun 17, 2019 01:00 13.6 - 96.5
Mon, Jun 17, 2019 00:00 14.4 - 93.8
Sun, Jun 16, 2019 23:00 14.9 - 85.2
Sun, Jun 16, 2019 22:00 15.4 - 82.7


asterix Register now to access more data! asterix